createdAt,value
2022-08-11T00:01:26.201Z,88.53
2022-08-11T00:03:58.955Z,88.78
2022-08-11T00:06:31.489Z,88.98
2022-08-11T00:09:02.243Z,88.70
2022-08-11T00:11:41.198Z,88.96
2022-08-11T00:14:37.197Z,88.99
2022-08-11T00:17:09.491Z,88.90
2022-08-11T00:20:13.697Z,88.95
2022-08-11T00:22:33.178Z,88.85
2022-08-11T00:25:10.934Z,88.96
2022-08-11T00:27:41.199Z,89.05
2022-08-11T00:30:11.480Z,89.14
2022-08-11T00:32:42.692Z,89.20
2022-08-11T00:35:54.098Z,88.85
2022-08-11T00:38:07.571Z,88.86
2022-08-11T00:41:04.596Z,88.88
2022-08-11T00:43:59.692Z,89.13
2022-08-11T00:46:28.577Z,89.23
2022-08-11T00:49:02.765Z,89.35
2022-08-11T00:52:05.479Z,89.58
2022-08-11T00:55:08.006Z,89.49
2022-08-11T00:58:13.717Z,89.56
2022-08-11T01:01:13.559Z,89.71
2022-08-11T01:04:34.543Z,89.83
2022-08-11T01:07:14.580Z,89.93
2022-08-11T01:10:14.271Z,90.37
2022-08-11T01:13:01.462Z,90.28
2022-08-11T01:16:08.108Z,90.41
2022-08-11T01:19:09.249Z,90.77
2022-08-11T01:21:43.365Z,90.99
2022-08-11T01:24:23.893Z,90.66
2022-08-11T01:27:19.641Z,90.79
2022-08-11T01:30:05.363Z,90.89
2022-08-11T01:32:55.547Z,90.95
2022-08-11T01:36:05.449Z,91.11
2022-08-11T01:39:00.784Z,91.24
2022-08-11T01:42:29.012Z,91.07
2022-08-11T01:45:03.580Z,90.66
2022-08-11T01:47:54.410Z,90.61
2022-08-11T01:50:47.736Z,90.89
2022-08-11T01:53:35.883Z,91.23
2022-08-11T01:56:16.362Z,91.47
2022-08-11T01:59:06.001Z,91.57
2022-08-11T02:01:42.918Z,91.71
2022-08-11T02:04:35.366Z,91.83
2022-08-11T02:07:26.458Z,91.89
2022-08-11T02:10:40.724Z,91.99
2022-08-11T02:13:39.906Z,92.39
2022-08-11T02:16:23.155Z,92.41
2022-08-11T02:19:28.602Z,92.65
2022-08-11T02:23:03.782Z,92.83
2022-08-11T02:25:46.988Z,92.90
2022-08-11T02:28:30.914Z,92.69
2022-08-11T02:32:15.530Z,92.77
2022-08-11T02:34:22.138Z,92.99
2022-08-11T02:37:16.206Z,93.18
2022-08-11T02:39:58.216Z,93.25
2022-08-11T02:42:41.551Z,93.36
2022-08-11T02:45:12.741Z,93.42
2022-08-11T02:48:27.593Z,93.75
2022-08-11T02:51:06.589Z,93.73
2022-08-11T02:54:07.235Z,93.81
2022-08-11T02:56:56.897Z,93.61
2022-08-11T02:59:53.471Z,93.77
2022-08-11T03:02:45.963Z,93.73
2022-08-11T03:05:39.240Z,93.98
2022-08-11T03:08:40.066Z,94.00
2022-08-11T03:12:15.098Z,94.05
2022-08-11T03:15:07.354Z,93.88
2022-08-11T03:17:54.277Z,93.97
2022-08-11T03:20:38.213Z,93.76
2022-08-11T03:23:30.491Z,93.75
2022-08-11T03:26:14.776Z,93.84
2022-08-11T03:29:02.110Z,93.68
2022-08-11T03:31:57.011Z,93.64
2022-08-11T03:34:28.290Z,93.69
2022-08-11T03:37:38.725Z,93.27
2022-08-11T03:40:12.983Z,93.46
2022-08-11T03:43:01.212Z,93.64
2022-08-11T03:45:47.240Z,93.85
2022-08-11T03:48:39.697Z,93.83
2022-08-11T03:51:25.222Z,93.56
2022-08-11T03:54:17.273Z,93.51
2022-08-11T03:57:18.110Z,93.65
2022-08-11T04:00:16.857Z,93.82
2022-08-11T04:02:50.972Z,93.88
2022-08-11T04:05:56.820Z,94.00
2022-08-11T04:08:43.328Z,94.29
2022-08-11T04:11:15.192Z,94.30
2022-08-11T04:14:22.369Z,94.74
2022-08-11T04:17:19.631Z,94.73
2022-08-11T04:20:22.234Z,94.56
2022-08-11T04:23:13.367Z,94.51
2022-08-11T04:26:39.403Z,94.90
2022-08-11T04:29:35.963Z,95.06
2022-08-11T04:32:36.252Z,95.36
2022-08-11T04:35:47.336Z,95.56
2022-08-11T04:38:44.917Z,95.99
2022-08-11T04:42:09.546Z,96.18
2022-08-11T04:45:12.140Z,96.43
2022-08-11T04:48:26.049Z,96.51
2022-08-11T04:51:44.164Z,96.75
2022-08-11T04:55:11.203Z,97.07
2022-08-11T04:58:39.213Z,97.31
2022-08-11T05:01:41.501Z,97.37
2022-08-11T05:04:55.857Z,97.16
2022-08-11T05:07:42.881Z,96.83
2022-08-11T05:10:52.459Z,96.66
2022-08-11T05:13:53.097Z,96.18
2022-08-11T05:17:16.801Z,96.06
2022-08-11T05:20:07.587Z,95.62
2022-08-11T05:22:55.739Z,95.31
2022-08-11T05:26:44.461Z,94.85
2022-08-11T05:29:22.610Z,94.35
2022-08-11T05:32:17.915Z,92.90
2022-08-11T05:34:56.456Z,91.78
2022-08-11T05:37:30.521Z,91.10
2022-08-11T05:40:30.301Z,89.74
2022-08-11T05:43:31.561Z,88.41
2022-08-11T05:46:21.910Z,87.09
2022-08-11T05:49:10.057Z,85.99
2022-08-11T05:52:05.719Z,85.20
2022-08-11T05:55:06.110Z,84.35
2022-08-11T05:57:42.376Z,82.81
2022-08-11T06:00:21.001Z,82.61
2022-08-11T06:02:52.285Z,82.14
2022-08-11T06:05:43.295Z,81.76
2022-08-11T06:08:14.744Z,81.02
2022-08-11T06:10:45.035Z,81.04
2022-08-11T06:13:18.233Z,80.24
2022-08-11T06:15:49.727Z,79.56
2022-08-11T06:18:19.437Z,79.27
2022-08-11T06:20:55.059Z,78.45
2022-08-11T06:23:30.518Z,78.21
2022-08-11T06:26:00.513Z,78.11
2022-08-11T06:28:33.015Z,76.64
2022-08-11T06:31:03.766Z,76.39
2022-08-11T06:33:44.089Z,75.22
2022-08-11T06:36:35.925Z,74.83
2022-08-11T06:39:26.718Z,74.29
2022-08-11T06:42:37.170Z,74.23
2022-08-11T06:45:32.535Z,74.13
2022-08-11T06:48:03.174Z,73.76
2022-08-11T06:50:51.633Z,72.26
2022-08-11T06:53:21.348Z,71.28
2022-08-11T06:56:09.476Z,71.51
2022-08-11T06:58:59.620Z,71.50
2022-08-11T07:01:49.300Z,71.07
2022-08-11T07:04:30.538Z,70.83
2022-08-11T07:07:45.566Z,70.92
2022-08-11T07:11:11.284Z,69.57
2022-08-11T07:13:59.967Z,69.15
2022-08-11T07:16:34.878Z,69.14
2022-08-11T07:19:27.729Z,67.70
2022-08-11T07:22:18.031Z,66.54
2022-08-11T07:25:14.515Z,66.12
2022-08-11T07:28:05.657Z,64.92
2022-08-11T07:30:40.203Z,64.26
2022-08-11T07:33:10.820Z,63.83
2022-08-11T07:36:02.095Z,63.44
2022-08-11T07:38:47.501Z,64.60
2022-08-11T07:41:19.459Z,63.33
2022-08-11T07:43:52.277Z,62.90
2022-08-11T07:46:40.514Z,60.56
2022-08-11T07:49:29.721Z,61.41
2022-08-11T07:52:17.043Z,61.18
2022-08-11T07:54:51.144Z,60.41
2022-08-11T07:58:14.059Z,61.11
2022-08-11T08:00:47.162Z,60.37
2022-08-11T08:03:39.521Z,57.77
2022-08-11T08:06:42.139Z,59.41
2022-08-11T08:09:30.781Z,61.24
2022-08-11T08:12:20.901Z,59.42
2022-08-11T08:15:10.301Z,59.34
2022-08-11T08:18:20.425Z,57.42
2022-08-11T08:20:47.897Z,56.26
2022-08-11T08:23:17.785Z,55.37
2022-08-11T08:25:47.102Z,56.48
2022-08-11T08:28:17.848Z,58.41
2022-08-11T08:30:52.729Z,57.79
2022-08-11T08:33:27.615Z,55.88
2022-08-11T08:36:14.895Z,53.60
2022-08-11T08:38:49.742Z,53.64
2022-08-11T08:41:25.067Z,54.88
2022-08-11T08:44:05.941Z,53.64
2022-08-11T08:46:49.725Z,52.92
2022-08-11T08:49:23.638Z,52.46
2022-08-11T08:52:21.638Z,53.54
2022-08-11T08:54:55.837Z,51.72
2022-08-11T08:57:28.341Z,48.42
2022-08-11T08:59:58.312Z,49.44
2022-08-11T09:02:44.112Z,50.15
2022-08-11T09:05:13.539Z,51.33
2022-08-11T09:07:43.490Z,49.98
2022-08-11T09:10:17.599Z,50.91
2022-08-11T09:12:46.431Z,49.64
2022-08-11T09:15:19.894Z,47.71
2022-08-11T09:17:51.872Z,48.75
2022-08-11T09:20:20.257Z,48.61
2022-08-11T09:26:19.286Z,48.88
2022-08-11T09:28:50.209Z,46.87
2022-08-11T09:31:22.051Z,48.03
2022-08-11T09:33:54.238Z,48.31
2022-08-11T09:36:41.863Z,49.31
2022-08-11T09:39:31.165Z,49.40
2022-08-11T09:42:04.359Z,48.40
2022-08-11T09:44:50.240Z,44.32
2022-08-11T09:47:23.695Z,44.32
2022-08-11T09:49:56.284Z,45.00
2022-08-11T09:52:25.294Z,45.26
2022-08-11T09:54:54.994Z,45.21
2022-08-11T09:57:42.293Z,44.15
2022-08-11T10:00:14.354Z,44.65
2022-08-11T10:02:46.373Z,44.78
2022-08-11T10:05:37.845Z,45.85
2022-08-11T10:08:09.417Z,45.02
2022-08-11T10:10:40.033Z,44.50
2022-08-11T10:14:31.090Z,43.70
2022-08-11T10:16:17.632Z,43.20
2022-08-11T10:18:53.843Z,42.96
2022-08-11T10:21:39.242Z,42.09
2022-08-11T10:24:28.133Z,43.34
2022-08-11T10:26:57.519Z,41.91
2022-08-11T10:29:51.255Z,42.57
2022-08-11T10:32:58.902Z,42.21
2022-08-11T10:35:32.769Z,43.55
2022-08-11T10:38:15.965Z,44.48
2022-08-11T10:41:07.244Z,46.10
2022-08-11T10:44:01.850Z,46.65
2022-08-11T10:46:45.896Z,45.53
2022-08-11T10:49:14.762Z,45.45
2022-08-11T10:52:03.198Z,45.20
2022-08-11T10:54:54.494Z,46.18
2022-08-11T10:57:42.161Z,48.94
2022-08-11T11:00:30.442Z,50.43
2022-08-11T11:03:22.895Z,50.70
2022-08-11T11:06:12.840Z,50.07
2022-08-11T11:08:57.741Z,47.44
2022-08-11T11:11:53.252Z,47.38
2022-08-11T11:14:46.756Z,46.30
2022-08-11T11:17:26.631Z,46.26
2022-08-11T11:20:00.273Z,43.43
2022-08-11T11:22:40.074Z,44.09
2022-08-11T11:25:23.572Z,44.85
2022-08-11T11:28:13.654Z,44.35
2022-08-11T11:30:57.467Z,44.36
2022-08-11T11:34:06.787Z,42.49
2022-08-11T11:36:50.810Z,43.42
2022-08-11T11:39:22.883Z,42.34
2022-08-11T11:41:54.911Z,43.03
2022-08-11T11:44:24.665Z,42.12
2022-08-11T11:46:53.980Z,40.83
2022-08-11T11:49:28.613Z,39.89
2022-08-11T11:51:58.734Z,40.63
2022-08-11T11:54:31.505Z,40.51
2022-08-11T11:57:21.687Z,42.78
2022-08-11T12:00:16.209Z,45.00
2022-08-11T12:02:45.266Z,46.92
2022-08-11T12:05:14.952Z,48.21
2022-08-11T12:08:12.515Z,49.75
2022-08-11T12:11:22.514Z,49.73
2022-08-11T12:13:53.382Z,50.94
2022-08-11T12:16:32.773Z,53.76
2022-08-11T12:19:07.929Z,55.09
2022-08-11T12:21:37.747Z,56.15
2022-08-11T12:24:29.440Z,56.81
2022-08-11T12:27:18.667Z,57.86
2022-08-11T12:29:55.372Z,57.81
2022-08-11T12:32:28.644Z,58.13
2022-08-11T12:34:58.015Z,58.28
2022-08-11T12:37:38.287Z,59.45
2022-08-11T12:40:48.792Z,60.23
2022-08-11T12:43:41.358Z,60.32
2022-08-11T12:46:32.114Z,60.68
2022-08-11T12:49:32.346Z,61.26
2022-08-11T12:52:14.473Z,60.87
2022-08-11T12:55:09.747Z,60.69
2022-08-11T12:58:07.317Z,60.70
2022-08-11T13:00:54.723Z,59.59
2022-08-11T13:03:43.019Z,60.06
2022-08-11T13:06:12.005Z,60.39
2022-08-11T13:08:42.326Z,56.45
2022-08-11T13:11:56.300Z,56.46
2022-08-11T13:14:19.970Z,55.85
2022-08-11T13:17:08.040Z,56.22
2022-08-11T13:19:38.340Z,54.10
2022-08-11T13:22:07.584Z,54.43
2022-08-11T13:24:37.090Z,55.46
2022-08-11T13:27:06.327Z,54.35
2022-08-11T13:29:36.113Z,52.93
2022-08-11T13:32:04.822Z,52.90
2022-08-11T13:34:35.767Z,50.00
2022-08-11T13:37:05.662Z,50.19
2022-08-11T13:39:36.157Z,51.36
2022-08-11T13:42:05.919Z,52.52
2022-08-11T13:44:38.468Z,51.18
2022-08-11T13:47:08.946Z,49.94
2022-08-11T13:49:40.481Z,48.96
2022-08-11T13:52:17.730Z,48.02
2022-08-11T13:54:48.421Z,47.17
2022-08-11T13:58:09.071Z,47.63
2022-08-11T14:00:22.535Z,48.36
2022-08-11T14:02:57.235Z,48.46
2022-08-11T14:05:29.448Z,47.86
2022-08-11T14:08:09.717Z,47.91
2022-08-11T14:12:21.552Z,46.36
2022-08-11T14:14:16.740Z,47.11
2022-08-11T14:16:46.663Z,47.18
2022-08-11T14:19:17.391Z,48.11
2022-08-11T14:22:07.932Z,47.50
2022-08-11T14:24:41.661Z,46.46
2022-08-11T14:28:30.469Z,46.91
2022-08-11T14:30:01.968Z,46.31
2022-08-11T14:32:30.340Z,46.80
2022-08-11T14:34:59.129Z,47.91
2022-08-11T14:37:29.278Z,48.56
2022-08-11T14:40:03.302Z,46.66
2022-08-11T14:42:51.798Z,46.73
2022-08-11T14:45:58.183Z,48.39
2022-08-11T14:48:27.856Z,49.38
2022-08-11T14:50:57.095Z,50.01
2022-08-11T14:53:25.830Z,50.56
2022-08-11T14:56:13.167Z,50.83
2022-08-11T14:58:43.635Z,50.59
2022-08-11T15:01:31.258Z,50.82
2022-08-11T15:04:35.348Z,50.65
2022-08-11T15:06:48.994Z,50.18
2022-08-11T15:09:18.510Z,50.09
2022-08-11T15:12:06.026Z,50.76
2022-08-11T15:15:13.875Z,50.17
2022-08-11T15:17:44.141Z,49.17
2022-08-11T15:20:37.120Z,49.57
2022-08-11T15:23:24.623Z,51.09
2022-08-11T15:26:00.847Z,52.19
2022-08-11T15:28:53.531Z,53.08
2022-08-11T15:31:27.876Z,52.29
2022-08-11T15:34:22.925Z,51.65
2022-08-11T15:37:14.079Z,51.93
2022-08-11T15:40:30.125Z,52.43
2022-08-11T15:43:41.776Z,53.06
2022-08-11T15:46:18.455Z,53.81
2022-08-11T15:48:56.298Z,53.62
2022-08-11T15:51:40.857Z,53.92
2022-08-11T15:54:18.767Z,55.52
2022-08-11T15:56:51.850Z,54.58
2022-08-11T15:59:42.821Z,54.67
2022-08-11T16:02:33.999Z,54.81
2022-08-11T16:05:08.598Z,55.05
2022-08-11T16:07:40.402Z,55.47
2022-08-11T16:10:14.016Z,55.60
2022-08-11T16:13:05.293Z,55.21
2022-08-11T16:16:07.906Z,56.27
2022-08-11T16:18:57.129Z,57.04
2022-08-11T16:21:36.007Z,57.11
2022-08-11T16:27:01.641Z,57.30
2022-08-11T16:27:11.084Z,56.81
2022-08-11T16:29:45.806Z,56.39
2022-08-11T16:32:19.103Z,57.46
2022-08-11T16:35:15.931Z,58.20
2022-08-11T16:38:04.521Z,59.01
2022-08-11T16:40:34.949Z,59.39
2022-08-11T16:43:26.533Z,59.95
2022-08-11T16:46:15.626Z,60.63
2022-08-11T16:48:48.407Z,60.46
2022-08-11T16:51:21.184Z,59.01
2022-08-11T16:54:05.264Z,58.58
2022-08-11T16:56:42.584Z,59.05
2022-08-11T16:59:19.930Z,59.90
2022-08-11T17:01:53.774Z,60.87
2022-08-11T17:04:47.487Z,60.95
2022-08-11T17:07:41.657Z,61.70
2022-08-11T17:10:51.288Z,63.12
2022-08-11T17:13:42.551Z,64.67
2022-08-11T17:16:13.878Z,65.56
2022-08-11T17:18:49.381Z,66.37
2022-08-11T17:21:19.646Z,68.01
2022-08-11T17:23:55.312Z,69.60
2022-08-11T17:26:49.865Z,70.43
2022-08-11T17:29:25.025Z,72.02
2022-08-11T17:32:14.247Z,73.36
2022-08-11T17:35:03.664Z,73.81
2022-08-11T17:37:34.846Z,74.32
2022-08-11T17:40:07.240Z,74.13
2022-08-11T17:42:56.608Z,74.06
2022-08-11T17:46:00.718Z,74.20
2022-08-11T17:48:33.019Z,74.58
2022-08-11T17:51:11.690Z,74.56
2022-08-11T17:54:24.001Z,74.91
2022-08-11T17:57:20.088Z,75.24
2022-08-11T17:59:53.736Z,75.83
2022-08-11T18:02:55.541Z,75.58
2022-08-11T18:05:37.566Z,75.73
2022-08-11T18:08:31.162Z,75.90
2022-08-11T18:12:10.744Z,76.57
2022-08-11T18:14:30.675Z,76.68
2022-08-11T18:17:23.050Z,76.56
2022-08-11T18:20:10.102Z,77.16
2022-08-11T18:23:01.915Z,77.26
2022-08-11T18:25:57.999Z,77.72
2022-08-11T18:28:55.175Z,77.98
2022-08-11T18:31:44.540Z,78.41
2022-08-11T18:34:39.772Z,78.67
2022-08-11T18:37:34.380Z,79.10
2022-08-11T18:40:27.815Z,79.44
2022-08-11T18:43:21.028Z,80.01
2022-08-11T18:46:15.499Z,80.54
2022-08-11T18:49:14.948Z,81.11
2022-08-11T18:52:07.082Z,81.30
2022-08-11T18:54:57.411Z,81.96
2022-08-11T18:57:49.511Z,82.56
2022-08-11T19:00:44.248Z,83.00
2022-08-11T19:03:48.806Z,83.16
2022-08-11T19:06:41.047Z,83.93
2022-08-11T19:09:33.038Z,84.49
2022-08-11T19:12:23.557Z,84.99
2022-08-11T19:15:12.137Z,85.14
2022-08-11T19:18:01.543Z,85.65
2022-08-11T19:20:51.511Z,85.80
2022-08-11T19:23:46.612Z,85.83
2022-08-11T19:26:35.280Z,86.38
2022-08-11T19:30:04.753Z,86.38
2022-08-11T19:32:35.315Z,86.59
2022-08-11T19:35:23.587Z,86.43
2022-08-11T19:38:11.519Z,86.43
2022-08-11T19:40:59.788Z,86.84
2022-08-11T19:43:49.609Z,86.93
2022-08-11T19:46:41.793Z,87.02
2022-08-11T19:49:29.684Z,87.08
2022-08-11T19:52:18.690Z,87.02
2022-08-11T19:55:08.162Z,87.20
2022-08-11T19:57:57.374Z,87.06
2022-08-11T20:00:45.303Z,87.11
2022-08-11T20:03:33.617Z,87.41
2022-08-11T20:06:26.681Z,87.46
2022-08-11T20:09:18.858Z,87.36
2022-08-11T20:12:10.477Z,87.44
2022-08-11T20:15:00.730Z,87.47
2022-08-11T20:17:54.449Z,87.29
2022-08-11T20:20:44.757Z,87.41
2022-08-11T20:23:34.955Z,87.49
2022-08-11T20:26:31.885Z,87.58
2022-08-11T20:29:20.936Z,87.31
2022-08-11T20:32:09.737Z,87.58
2022-08-11T20:34:59.562Z,87.75
2022-08-11T20:37:51.248Z,87.90
2022-08-11T20:40:49.046Z,87.74
2022-08-11T20:44:08.493Z,88.00
2022-08-11T20:46:45.667Z,88.26
2022-08-11T20:49:44.885Z,88.19
2022-08-11T20:52:42.229Z,88.11
2022-08-11T20:55:52.142Z,88.21
2022-08-11T20:59:13.467Z,88.06
2022-08-11T21:01:52.177Z,87.81
2022-08-11T21:04:53.898Z,88.04
2022-08-11T21:07:45.039Z,88.22
2022-08-11T21:10:51.215Z,88.29
2022-08-11T21:13:42.895Z,88.44
2022-08-11T21:16:38.825Z,88.91
2022-08-11T21:19:59.920Z,88.90
2022-08-11T21:22:59.615Z,89.06
2022-08-11T21:25:59.421Z,89.09
2022-08-11T21:28:49.274Z,89.15
2022-08-11T21:31:37.252Z,89.39
2022-08-11T21:34:27.468Z,89.54
2022-08-11T21:37:16.591Z,89.83
2022-08-11T21:40:05.861Z,90.20
2022-08-11T21:42:56.565Z,90.29
2022-08-11T21:45:45.646Z,90.26
2022-08-11T21:48:33.677Z,90.49
2022-08-11T21:51:20.821Z,90.67
2022-08-11T21:54:08.493Z,90.89
2022-08-11T21:56:57.792Z,90.88
2022-08-11T22:00:11.723Z,91.07
2022-08-11T22:03:00.819Z,91.32
2022-08-11T22:05:53.078Z,91.53
2022-08-11T22:08:42.066Z,91.50
2022-08-11T22:11:32.107Z,91.82
2022-08-11T22:14:23.475Z,91.74
2022-08-11T22:17:11.056Z,92.09
2022-08-11T22:20:01.329Z,92.21
2022-08-11T22:22:53.082Z,92.78
2022-08-11T22:25:51.675Z,92.96
2022-08-11T22:28:41.972Z,93.12
2022-08-11T22:31:30.370Z,93.27
2022-08-11T22:34:17.491Z,93.08
2022-08-11T22:37:06.616Z,93.17
2022-08-11T22:40:02.138Z,93.22
2022-08-11T22:42:51.286Z,93.19
2022-08-11T22:45:39.263Z,93.25
2022-08-11T22:48:28.490Z,93.18
2022-08-11T22:51:17.587Z,93.27
2022-08-11T22:54:06.403Z,93.40
2022-08-11T22:56:54.125Z,93.64
2022-08-11T22:59:42.368Z,93.82
2022-08-11T23:02:29.753Z,93.82
2022-08-11T23:05:18.052Z,94.05
2022-08-11T23:08:06.206Z,94.27
2022-08-11T23:10:53.268Z,94.27
2022-08-11T23:13:41.084Z,94.51
2022-08-11T23:16:28.576Z,94.67
2022-08-11T23:20:00.368Z,94.87
2022-08-11T23:22:24.029Z,95.04
2022-08-11T23:25:26.634Z,95.05
2022-08-11T23:28:17.027Z,95.08
2022-08-11T23:31:04.597Z,95.11
2022-08-11T23:33:55.871Z,95.09
2022-08-11T23:36:47.435Z,95.05
2022-08-11T23:39:35.943Z,95.33
2022-08-11T23:42:24.054Z,95.45
2022-08-11T23:45:11.356Z,95.64
2022-08-11T23:48:00.467Z,95.56
2022-08-11T23:50:48.166Z,95.72
2022-08-11T23:53:36.970Z,95.87
2022-08-11T23:56:24.635Z,96.07
2022-08-11T23:59:16.758Z,96.23
